createdAt,value
2022-09-27T00:04:02.756Z,10.60
2022-09-27T00:09:10.932Z,10.50
2022-09-27T00:14:21.568Z,10.60
2022-09-27T00:19:29.865Z,10.50
2022-09-27T00:24:39.149Z,10.50
2022-09-27T00:29:48.700Z,10.50
2022-09-27T00:34:56.308Z,10.50
2022-09-27T00:40:03.554Z,10.60
2022-09-27T00:45:15.295Z,10.70
2022-09-27T00:50:35.760Z,10.80
2022-09-27T00:55:56.978Z,10.60
2022-09-27T01:01:10.170Z,10.70
2022-09-27T01:06:20.550Z,10.80
2022-09-27T01:12:06.323Z,10.90
2022-09-27T01:17:24.064Z,10.90
2022-09-27T01:22:44.104Z,10.90
2022-09-27T01:27:59.126Z,10.90
2022-09-27T01:33:31.031Z,10.80
2022-09-27T01:39:02.923Z,10.60
2022-09-27T01:44:26.130Z,10.60
2022-09-27T01:50:07.370Z,10.70
2022-09-27T01:55:18.527Z,10.70
2022-09-27T02:00:25.398Z,10.70
2022-09-27T02:05:45.192Z,10.80
2022-09-27T02:10:56.084Z,10.90
2022-09-27T02:16:31.395Z,10.80
2022-09-27T02:21:48.300Z,10.80
2022-09-27T02:26:59.533Z,10.80
2022-09-27T02:32:06.284Z,10.80
2022-09-27T02:37:14.088Z,10.70
2022-09-27T02:42:20.850Z,10.80
2022-09-27T02:47:43.651Z,10.80
2022-09-27T02:52:57.566Z,10.80
2022-09-27T02:58:22.799Z,10.80
2022-09-27T03:03:37.777Z,10.90
2022-09-27T03:08:47.621Z,10.60
2022-09-27T03:14:08.429Z,10.70
2022-09-27T03:19:03.977Z,10.80
2022-09-27T03:24:10.880Z,10.70
2022-09-27T03:29:19.256Z,10.70
2022-09-27T03:34:25.938Z,10.80
2022-09-27T03:39:33.824Z,10.80
2022-09-27T03:44:41.448Z,10.80
2022-09-27T03:49:49.256Z,10.80
2022-09-27T03:55:01.854Z,10.90
2022-09-27T04:00:08.841Z,10.90
2022-09-27T04:05:16.480Z,10.80
2022-09-27T04:10:23.375Z,10.70
2022-09-27T04:15:31.124Z,10.70
2022-09-27T04:20:39.985Z,10.80
2022-09-27T04:25:47.539Z,10.80
2022-09-27T04:30:55.025Z,10.80
2022-09-27T04:36:20.261Z,10.80
2022-09-27T04:41:31.627Z,10.80
2022-09-27T04:46:38.483Z,10.70
2022-09-27T04:51:48.044Z,10.60
2022-09-27T04:56:55.898Z,10.60
2022-09-27T05:02:03.474Z,10.70
2022-09-27T05:07:11.048Z,10.70
2022-09-27T05:12:17.859Z,10.60
2022-09-27T05:17:24.565Z,10.60
2022-09-27T05:22:31.302Z,10.70
2022-09-27T05:27:38.005Z,10.70
2022-09-27T05:32:50.347Z,10.70
2022-09-27T05:38:00.558Z,10.60
2022-09-27T05:43:07.452Z,10.50
2022-09-27T05:48:14.858Z,10.60
2022-09-27T05:53:21.603Z,10.60
2022-09-27T05:58:29.476Z,10.70
2022-09-27T06:03:40.151Z,10.60
2022-09-27T06:08:46.869Z,10.70
2022-09-27T06:13:54.551Z,10.90
2022-09-27T06:19:01.228Z,11.00
2022-09-27T06:24:08.015Z,10.90
2022-09-27T06:29:14.777Z,10.90
2022-09-27T06:34:21.550Z,11.10
2022-09-27T06:39:29.164Z,11.00
2022-09-27T06:44:35.873Z,11.10
2022-09-27T06:49:42.561Z,11.00
2022-09-27T06:54:49.259Z,11.30
2022-09-27T07:00:13.553Z,11.20
2022-09-27T07:05:22.177Z,10.90
2022-09-27T07:10:34.455Z,11.00
2022-09-27T07:15:43.709Z,11.20
2022-09-27T07:20:51.120Z,11.30
2022-09-27T07:25:57.841Z,11.20
2022-09-27T07:31:05.457Z,11.20
2022-09-27T07:36:14.682Z,11.30
2022-09-27T07:41:21.449Z,11.60
2022-09-27T07:46:28.174Z,11.50
2022-09-27T07:51:34.908Z,11.70
2022-09-27T07:56:41.602Z,11.70
2022-09-27T08:02:07.764Z,11.70
2022-09-27T08:07:14.877Z,11.70
2022-09-27T08:12:23.317Z,11.90
2022-09-27T08:17:32.579Z,12.00
2022-09-27T08:22:45.829Z,11.80
2022-09-27T08:28:02.400Z,11.70
2022-09-27T08:33:10.102Z,11.80
2022-09-27T08:38:16.816Z,11.80
2022-09-27T08:43:40.103Z,11.80
2022-09-27T08:48:50.657Z,11.70
2022-09-27T08:54:04.963Z,11.60
2022-09-27T08:59:27.507Z,11.70
2022-09-27T09:04:41.445Z,11.60
2022-09-27T09:10:24.843Z,11.70
2022-09-27T09:16:01.269Z,11.70
2022-09-27T09:21:43.424Z,11.80
2022-09-27T09:27:06.285Z,11.50
2022-09-27T09:32:44.942Z,11.40
2022-09-27T09:37:59.193Z,11.30
2022-09-27T09:43:41.514Z,11.40
2022-09-27T09:49:26.082Z,11.50
2022-09-27T09:54:42.992Z,11.50
2022-09-27T09:59:58.375Z,11.30
2022-09-27T10:05:07.989Z,11.50
2022-09-27T10:10:18.125Z,11.60
2022-09-27T10:15:29.235Z,11.60
2022-09-27T10:20:52.569Z,11.50
2022-09-27T10:26:05.356Z,11.50
2022-09-27T10:31:18.640Z,11.60
2022-09-27T10:36:32.801Z,11.60
2022-09-27T10:41:42.107Z,11.70
2022-09-27T10:46:55.292Z,11.90
2022-09-27T10:52:05.185Z,11.80
2022-09-27T10:57:24.931Z,12.10
2022-09-27T11:02:38.111Z,12.10
2022-09-27T11:07:57.367Z,11.80
2022-09-27T11:13:16.418Z,11.80
2022-09-27T11:18:55.723Z,11.80
2022-09-27T11:24:25.018Z,11.60
2022-09-27T11:30:17.279Z,11.70
2022-09-27T11:36:01.894Z,11.70
2022-09-27T11:41:24.506Z,11.80
2022-09-27T11:46:41.905Z,11.90
2022-09-27T11:52:04.683Z,11.90
2022-09-27T11:57:37.067Z,11.90
2022-09-27T12:03:34.905Z,11.90
2022-09-27T12:09:10.297Z,11.80
2022-09-27T12:14:38.662Z,11.80
2022-09-27T12:19:51.110Z,11.80
2022-09-27T12:24:58.461Z,11.70
2022-09-27T12:30:06.881Z,11.80
2022-09-27T12:35:23.876Z,11.90
2022-09-27T12:40:39.415Z,12.00
2022-09-27T12:46:07.135Z,12.00
2022-09-27T12:51:17.821Z,12.10
2022-09-27T12:56:50.978Z,12.10
2022-09-27T13:02:29.445Z,12.40
2022-09-27T13:08:05.585Z,12.40
2022-09-27T13:13:16.303Z,12.40
2022-09-27T13:18:39.069Z,12.20
2022-09-27T13:23:51.035Z,12.20
2022-09-27T13:29:04.999Z,12.10
2022-09-27T13:34:13.596Z,12.10
2022-09-27T13:39:23.841Z,12.20
2022-09-27T13:44:59.279Z,12.20
2022-09-27T13:50:37.470Z,12.20
2022-09-27T13:55:54.214Z,12.30
2022-09-27T14:01:11.188Z,12.30
2022-09-27T14:06:32.178Z,12.50
2022-09-27T14:11:44.997Z,12.20
2022-09-27T14:16:54.639Z,12.20
2022-09-27T14:22:01.470Z,12.20
2022-09-27T14:27:31.150Z,12.30
2022-09-27T14:32:42.793Z,12.40
2022-09-27T14:37:53.944Z,12.50
2022-09-27T14:43:04.727Z,12.10
2022-09-27T14:48:40.131Z,12.40
2022-09-27T14:53:59.804Z,12.30
2022-09-27T14:59:16.613Z,12.20
2022-09-27T15:04:25.582Z,12.00
2022-09-27T15:09:34.930Z,12.20
2022-09-27T15:14:46.938Z,12.00
2022-09-27T15:20:07.388Z,11.80
2022-09-27T15:25:42.334Z,11.80
2022-09-27T15:30:58.775Z,11.90
2022-09-27T15:36:10.913Z,11.80
2022-09-27T15:41:23.265Z,11.80
2022-09-27T15:46:40.973Z,11.90
2022-09-27T15:51:53.937Z,11.80
2022-09-27T15:57:05.256Z,11.40
2022-09-27T16:02:21.743Z,11.30
2022-09-27T16:07:29.783Z,11.50
2022-09-27T16:12:37.204Z,11.50
2022-09-27T16:17:45.408Z,11.60
2022-09-27T16:22:55.746Z,11.50
2022-09-27T16:28:09.712Z,11.50
2022-09-27T16:33:15.666Z,11.40
2022-09-27T16:38:22.592Z,11.50
2022-09-27T16:43:32.757Z,11.40
2022-09-27T16:48:40.649Z,11.40
2022-09-27T16:53:47.709Z,11.30
2022-09-27T16:58:55.399Z,11.20
2022-09-27T17:04:03.744Z,11.10
2022-09-27T17:09:12.490Z,11.20
2022-09-27T17:14:22.080Z,10.80
2022-09-27T17:19:29.018Z,10.70
2022-09-27T17:24:39.249Z,10.60
2022-09-27T17:29:46.104Z,10.60
2022-09-27T17:34:54.828Z,10.30
2022-09-27T17:40:01.939Z,9.90
2022-09-27T17:45:11.265Z,9.70
2022-09-27T17:50:28.871Z,9.40
2022-09-27T17:55:36.451Z,9.30
2022-09-27T18:00:43.139Z,9.50
2022-09-27T18:05:50.804Z,9.50
2022-09-27T18:10:57.578Z,9.50
2022-09-27T18:16:05.289Z,9.20
2022-09-27T18:21:18.200Z,9.20
2022-09-27T18:26:29.714Z,9.20
2022-09-27T18:31:37.714Z,9.50
2022-09-27T18:36:45.133Z,9.50
2022-09-27T18:41:54.380Z,9.40
2022-09-27T18:47:01.162Z,9.30
2022-09-27T18:52:08.008Z,9.30
2022-09-27T18:57:15.274Z,9.40
2022-09-27T19:02:22.082Z,9.10
2022-09-27T19:07:28.918Z,9.40
2022-09-27T19:12:35.602Z,9.30
2022-09-27T19:17:42.334Z,9.30
2022-09-27T19:22:49.034Z,9.00
2022-09-27T19:27:56.430Z,8.80
2022-09-27T19:33:04.168Z,8.60
2022-09-27T19:38:12.059Z,8.40
2022-09-27T19:43:18.878Z,8.60
2022-09-27T19:48:25.647Z,8.60
2022-09-27T19:53:35.870Z,8.40
2022-09-27T19:58:45.067Z,8.50
2022-09-27T20:03:56.280Z,8.50
2022-09-27T20:09:06.661Z,8.10
2022-09-27T20:14:14.225Z,7.90
2022-09-27T20:19:25.188Z,7.80
2022-09-27T20:24:32.284Z,8.00
2022-09-27T20:29:39.837Z,7.90
2022-09-27T20:34:46.590Z,7.70
2022-09-27T20:39:53.783Z,7.80
2022-09-27T20:45:00.512Z,7.70
2022-09-27T20:50:08.532Z,7.90
2022-09-27T20:55:15.351Z,7.80
2022-09-27T21:00:22.186Z,7.50
2022-09-27T21:05:28.943Z,7.40
2022-09-27T21:10:36.400Z,7.30
2022-09-27T21:15:43.145Z,7.20
2022-09-27T21:20:51.478Z,7.30
2022-09-27T21:26:18.880Z,7.40
2022-09-27T21:31:30.125Z,7.30
2022-09-27T21:36:41.487Z,7.00
2022-09-27T21:41:48.158Z,6.80
2022-09-27T21:46:54.944Z,7.00
2022-09-27T21:52:01.834Z,7.10
2022-09-27T21:57:08.540Z,7.10
2022-09-27T22:02:15.170Z,6.90
2022-09-27T22:07:21.897Z,7.00
2022-09-27T22:12:28.578Z,7.00
2022-09-27T22:17:35.374Z,6.80
2022-09-27T22:22:42.419Z,6.90
2022-09-27T22:27:49.178Z,6.70
2022-09-27T22:32:56.008Z,6.50
2022-09-27T22:38:02.882Z,6.50
2022-09-27T22:43:10.432Z,6.80
2022-09-27T22:48:20.174Z,7.00
2022-09-27T22:53:30.756Z,6.90
2022-09-27T22:58:39.389Z,7.10
2022-09-27T23:03:47.633Z,7.20
2022-09-27T23:08:55.428Z,7.00
2022-09-27T23:14:07.246Z,6.40
2022-09-27T23:19:15.978Z,6.40
2022-09-27T23:24:24.902Z,6.60
2022-09-27T23:29:31.602Z,6.80
2022-09-27T23:34:39.793Z,6.60
2022-09-27T23:39:47.696Z,6.60
2022-09-27T23:44:56.726Z,6.50
2022-09-27T23:50:04.018Z,6.50
2022-09-27T23:55:15.129Z,6.40
